sensor_id;sensor_type;location;lat;lon;timestamp;temperature;humidity
15113;DHT22;7657;50.140;7.076;2023-05-21T00:00:55;14.70;99.90
15113;DHT22;7657;50.140;7.076;2023-05-21T00:03:22;14.70;99.90
15113;DHT22;7657;50.140;7.076;2023-05-21T00:05:51;14.70;99.90
15113;DHT22;7657;50.140;7.076;2023-05-21T00:08:20;14.60;99.90
15113;DHT22;7657;50.140;7.076;2023-05-21T00:10:47;14.60;99.90
15113;DHT22;7657;50.140;7.076;2023-05-21T00:13:14;14.60;99.90
15113;DHT22;7657;50.140;7.076;2023-05-21T00:15:41;14.60;99.90
15113;DHT22;7657;50.140;7.076;2023-05-21T00:18:08;14.50;99.90
15113;DHT22;7657;50.140;7.076;2023-05-21T00:20:35;14.50;99.90
15113;DHT22;7657;50.140;7.076;2023-05-21T00:23:02;14.50;99.90
15113;DHT22;7657;50.140;7.076;2023-05-21T00:25:30;14.50;99.90
15113;DHT22;7657;50.140;7.076;2023-05-21T00:27:57;14.50;99.90
15113;DHT22;7657;50.140;7.076;2023-05-21T00:30:24;14.50;99.90
15113;DHT22;7657;50.140;7.076;2023-05-21T00:32:51;14.50;99.90
15113;DHT22;7657;50.140;7.076;2023-05-21T00:35:17;14.50;99.90
15113;DHT22;7657;50.140;7.076;2023-05-21T00:37:45;14.50;99.90
15113;DHT22;7657;50.140;7.076;2023-05-21T00:40:12;14.50;99.90
15113;DHT22;7657;50.140;7.076;2023-05-21T00:42:41;14.40;99.90
15113;DHT22;7657;50.140;7.076;2023-05-21T00:45:12;14.50;99.90
15113;DHT22;7657;50.140;7.076;2023-05-21T00:47:41;14.40;99.90
15113;DHT22;7657;50.140;7.076;2023-05-21T00:50:10;14.40;99.90
15113;DHT22;7657;50.140;7.076;2023-05-21T00:52:39;14.40;99.90
15113;DHT22;7657;50.140;7.076;2023-05-21T00:55:08;14.40;99.90
15113;DHT22;7657;50.140;7.076;2023-05-21T00:57:35;14.40;99.90
15113;DHT22;7657;50.140;7.076;2023-05-21T01:00:05;14.40;99.90
15113;DHT22;7657;50.140;7.076;2023-05-21T01:02:34;14.40;99.90
15113;DHT22;7657;50.140;7.076;2023-05-21T01:05:02;14.40;99.90
15113;DHT22;7657;50.140;7.076;2023-05-21T01:07:30;14.40;99.90
15113;DHT22;7657;50.140;7.076;2023-05-21T01:09:59;14.40;99.90
15113;DHT22;7657;50.140;7.076;2023-05-21T01:12:26;14.40;99.90
15113;DHT22;7657;50.140;7.076;2023-05-21T01:14:54;14.30;99.90
15113;DHT22;7657;50.140;7.076;2023-05-21T01:17:23;14.40;99.90
15113;DHT22;7657;50.140;7.076;2023-05-21T01:19:51;14.30;99.90
15113;DHT22;7657;50.140;7.076;2023-05-21T01:22:20;14.40;99.90
15113;DHT22;7657;50.140;7.076;2023-05-21T01:24:50;14.40;99.90
15113;DHT22;7657;50.140;7.076;2023-05-21T01:27:17;14.40;99.90
15113;DHT22;7657;50.140;7.076;2023-05-21T01:29:44;14.40;99.90
15113;DHT22;7657;50.140;7.076;2023-05-21T01:32:15;14.40;99.90
15113;DHT22;7657;50.140;7.076;2023-05-21T01:34:49;14.40;99.90
15113;DHT22;7657;50.140;7.076;2023-05-21T01:37:21;14.40;99.90
15113;DHT22;7657;50.140;7.076;2023-05-21T01:39:56;14.30;99.90
15113;DHT22;7657;50.140;7.076;2023-05-21T01:42:27;14.30;99.90
15113;DHT22;7657;50.140;7.076;2023-05-21T01:44:55;14.30;99.90
15113;DHT22;7657;50.140;7.076;2023-05-21T01:47:23;14.30;99.90
15113;DHT22;7657;50.140;7.076;2023-05-21T01:49:50;14.30;99.90
15113;DHT22;7657;50.140;7.076;2023-05-21T01:52:17;14.30;99.90
15113;DHT22;7657;50.140;7.076;2023-05-21T01:54:44;14.30;99.90
15113;DHT22;7657;50.140;7.076;2023-05-21T01:57:12;14.30;99.90
15113;DHT22;7657;50.140;7.076;2023-05-21T01:59:39;14.30;99.90
15113;DHT22;7657;50.140;7.076;2023-05-21T02:02:06;14.30;99.90
15113;DHT22;7657;50.140;7.076;2023-05-21T02:04:33;14.30;99.90
15113;DHT22;7657;50.140;7.076;2023-05-21T02:07:00;14.30;99.90
15113;DHT22;7657;50.140;7.076;2023-05-21T02:09:27;14.30;99.90
15113;DHT22;7657;50.140;7.076;2023-05-21T02:11:54;14.30;99.90
15113;DHT22;7657;50.140;7.076;2023-05-21T02:14:24;14.30;99.90
15113;DHT22;7657;50.140;7.076;2023-05-21T02:16:50;14.40;99.90
15113;DHT22;7657;50.140;7.076;2023-05-21T02:19:18;14.30;99.90
15113;DHT22;7657;50.140;7.076;2023-05-21T02:21:45;14.30;99.90
15113;DHT22;7657;50.140;7.076;2023-05-21T02:24:12;14.30;99.90
15113;DHT22;7657;50.140;7.076;2023-05-21T02:26:39;14.30;99.90
15113;DHT22;7657;50.140;7.076;2023-05-21T02:29:06;14.40;99.90
15113;DHT22;7657;50.140;7.076;2023-05-21T02:31:34;14.40;99.90
15113;DHT22;7657;50.140;7.076;2023-05-21T02:34:01;14.40;99.90
15113;DHT22;7657;50.140;7.076;2023-05-21T02:36:28;14.40;99.90
15113;DHT22;7657;50.140;7.076;2023-05-21T02:38:57;14.30;99.90
15113;DHT22;7657;50.140;7.076;2023-05-21T02:41:26;14.30;99.90
15113;DHT22;7657;50.140;7.076;2023-05-21T02:43:53;14.30;99.90
15113;DHT22;7657;50.140;7.076;2023-05-21T02:46:20;14.30;99.90
15113;DHT22;7657;50.140;7.076;2023-05-21T02:48:48;14.30;99.90
15113;DHT22;7657;50.140;7.076;2023-05-21T02:51:15;14.30;99.90
15113;DHT22;7657;50.140;7.076;2023-05-21T02:53:41;14.40;99.90
15113;DHT22;7657;50.140;7.076;2023-05-21T02:56:08;14.30;99.90
15113;DHT22;7657;50.140;7.076;2023-05-21T02:58:37;14.30;99.90
15113;DHT22;7657;50.140;7.076;2023-05-21T03:01:03;14.30;99.90
15113;DHT22;7657;50.140;7.076;2023-05-21T03:03:30;14.30;99.90
15113;DHT22;7657;50.140;7.076;2023-05-21T03:05:59;14.20;99.90
15113;DHT22;7657;50.140;7.076;2023-05-21T03:08:26;14.20;99.90
15113;DHT22;7657;50.140;7.076;2023-05-21T03:10:52;14.30;99.90
15113;DHT22;7657;50.140;7.076;2023-05-21T03:13:19;14.20;99.90
15113;DHT22;7657;50.140;7.076;2023-05-21T03:15:46;14.20;99.90
15113;DHT22;7657;50.140;7.076;2023-05-21T03:18:13;14.30;99.90
15113;DHT22;7657;50.140;7.076;2023-05-21T03:20:40;14.30;99.90
15113;DHT22;7657;50.140;7.076;2023-05-21T03:23:11;14.20;99.90
15113;DHT22;7657;50.140;7.076;2023-05-21T03:25:38;14.20;99.90
15113;DHT22;7657;50.140;7.076;2023-05-21T03:28:05;14.30;99.90
15113;DHT22;7657;50.140;7.076;2023-05-21T03:30:34;14.20;99.90
15113;DHT22;7657;50.140;7.076;2023-05-21T03:33:02;14.20;99.90
15113;DHT22;7657;50.140;7.076;2023-05-21T03:35:30;14.20;99.90
15113;DHT22;7657;50.140;7.076;2023-05-21T03:37:57;14.20;99.90
15113;DHT22;7657;50.140;7.076;2023-05-21T03:40:25;14.10;99.90
15113;DHT22;7657;50.140;7.076;2023-05-21T03:42:52;14.10;99.90
15113;DHT22;7657;50.140;7.076;2023-05-21T03:45:19;14.10;99.90
15113;DHT22;7657;50.140;7.076;2023-05-21T03:47:46;14.10;99.90
15113;DHT22;7657;50.140;7.076;2023-05-21T03:50:14;14.10;99.90
15113;DHT22;7657;50.140;7.076;2023-05-21T03:52:41;14.10;99.90
15113;DHT22;7657;50.140;7.076;2023-05-21T03:55:09;14.10;99.90
15113;DHT22;7657;50.140;7.076;2023-05-21T03:57:37;14.10;99.90
15113;DHT22;7657;50.140;7.076;2023-05-21T04:00:05;14.10;99.90
15113;DHT22;7657;50.140;7.076;2023-05-21T04:02:33;14.10;99.90
15113;DHT22;7657;50.140;7.076;2023-05-21T04:05:00;14.10;99.90
15113;DHT22;7657;50.140;7.076;2023-05-21T04:07:28;14.10;99.90
15113;DHT22;7657;50.140;7.076;2023-05-21T04:09:55;14.10;99.90
15113;DHT22;7657;50.140;7.076;2023-05-21T04:12:22;14.10;99.90
15113;DHT22;7657;50.140;7.076;2023-05-21T04:14:50;14.10;99.90
15113;DHT22;7657;50.140;7.076;2023-05-21T04:17:17;14.10;99.90
15113;DHT22;7657;50.140;7.076;2023-05-21T04:19:45;14.20;99.90
15113;DHT22;7657;50.140;7.076;2023-05-21T04:22:12;14.20;99.90
15113;DHT22;7657;50.140;7.076;2023-05-21T04:24:39;14.20;99.90
15113;DHT22;7657;50.140;7.076;2023-05-21T04:27:05;14.20;99.90
15113;DHT22;7657;50.140;7.076;2023-05-21T04:29:34;14.30;99.90
15113;DHT22;7657;50.140;7.076;2023-05-21T04:32:04;14.30;99.90
15113;DHT22;7657;50.140;7.076;2023-05-21T04:34:31;14.30;99.90
15113;DHT22;7657;50.140;7.076;2023-05-21T04:36:58;14.40;99.90
15113;DHT22;7657;50.140;7.076;2023-05-21T04:39:25;14.40;99.90
15113;DHT22;7657;50.140;7.076;2023-05-21T04:41:53;14.40;99.90
15113;DHT22;7657;50.140;7.076;2023-05-21T04:44:21;14.40;99.90
15113;DHT22;7657;50.140;7.076;2023-05-21T04:46:48;14.40;99.90
15113;DHT22;7657;50.140;7.076;2023-05-21T04:49:16;14.40;99.90
15113;DHT22;7657;50.140;7.076;2023-05-21T04:51:43;14.30;99.90
15113;DHT22;7657;50.140;7.076;2023-05-21T04:54:11;14.40;99.90
15113;DHT22;7657;50.140;7.076;2023-05-21T04:56:38;14.40;99.90
15113;DHT22;7657;50.140;7.076;2023-05-21T04:59:05;14.40;99.90
15113;DHT22;7657;50.140;7.076;2023-05-21T05:01:32;14.40;99.90
15113;DHT22;7657;50.140;7.076;2023-05-21T05:03:59;14.40;99.90
15113;DHT22;7657;50.140;7.076;2023-05-21T05:06:28;14.40;99.90
15113;DHT22;7657;50.140;7.076;2023-05-21T05:08:55;14.40;99.90
15113;DHT22;7657;50.140;7.076;2023-05-21T05:11:22;14.50;99.90
15113;DHT22;7657;50.140;7.076;2023-05-21T05:13:49;14.50;99.90
15113;DHT22;7657;50.140;7.076;2023-05-21T05:16:16;14.50;99.90
15113;DHT22;7657;50.140;7.076;2023-05-21T05:18:49;14.50;99.90
15113;DHT22;7657;50.140;7.076;2023-05-21T05:21:16;14.50;99.90
15113;DHT22;7657;50.140;7.076;2023-05-21T05:23:44;14.50;99.90
15113;DHT22;7657;50.140;7.076;2023-05-21T05:26:11;14.50;99.90
15113;DHT22;7657;50.140;7.076;2023-05-21T05:28:38;14.50;99.90
15113;DHT22;7657;50.140;7.076;2023-05-21T05:31:05;14.50;99.90
15113;DHT22;7657;50.140;7.076;2023-05-21T05:33:32;14.50;99.90
15113;DHT22;7657;50.140;7.076;2023-05-21T05:35:59;14.50;99.90
15113;DHT22;7657;50.140;7.076;2023-05-21T05:38:26;14.60;99.90
15113;DHT22;7657;50.140;7.076;2023-05-21T05:40:54;14.60;99.90
15113;DHT22;7657;50.140;7.076;2023-05-21T05:43:21;14.60;99.90
15113;DHT22;7657;50.140;7.076;2023-05-21T05:45:48;14.70;99.90
15113;DHT22;7657;50.140;7.076;2023-05-21T05:48:14;14.70;99.90
15113;DHT22;7657;50.140;7.076;2023-05-21T05:50:42;14.80;99.90
15113;DHT22;7657;50.140;7.076;2023-05-21T05:53:09;14.80;99.90
15113;DHT22;7657;50.140;7.076;2023-05-21T05:55:37;14.90;99.90
15113;DHT22;7657;50.140;7.076;2023-05-21T05:58:06;14.90;99.90
15113;DHT22;7657;50.140;7.076;2023-05-21T06:00:33;14.90;99.90
15113;DHT22;7657;50.140;7.076;2023-05-21T06:02:59;14.90;99.90
15113;DHT22;7657;50.140;7.076;2023-05-21T06:05:26;15.00;99.90
15113;DHT22;7657;50.140;7.076;2023-05-21T06:07:53;15.00;99.90
15113;DHT22;7657;50.140;7.076;2023-05-21T06:10:20;15.00;99.90
15113;DHT22;7657;50.140;7.076;2023-05-21T06:12:47;14.90;99.90
15113;DHT22;7657;50.140;7.076;2023-05-21T06:15:15;14.90;99.90
15113;DHT22;7657;50.140;7.076;2023-05-21T06:17:44;15.00;99.90
15113;DHT22;7657;50.140;7.076;2023-05-21T06:20:11;15.00;99.90
15113;DHT22;7657;50.140;7.076;2023-05-21T06:22:38;15.10;99.90
15113;DHT22;7657;50.140;7.076;2023-05-21T06:25:06;15.10;99.90
15113;DHT22;7657;50.140;7.076;2023-05-21T06:27:35;15.20;99.90
15113;DHT22;7657;50.140;7.076;2023-05-21T06:30:03;15.20;99.90
15113;DHT22;7657;50.140;7.076;2023-05-21T06:32:31;15.20;99.90
15113;DHT22;7657;50.140;7.076;2023-05-21T06:34:58;15.20;99.90
15113;DHT22;7657;50.140;7.076;2023-05-21T06:37:25;15.30;99.90
15113;DHT22;7657;50.140;7.076;2023-05-21T06:39:52;15.30;99.90
15113;DHT22;7657;50.140;7.076;2023-05-21T06:42:19;15.30;99.90
15113;DHT22;7657;50.140;7.076;2023-05-21T06:44:46;15.30;99.90
15113;DHT22;7657;50.140;7.076;2023-05-21T06:47:13;15.30;99.90
15113;DHT22;7657;50.140;7.076;2023-05-21T06:49:41;15.30;99.90
15113;DHT22;7657;50.140;7.076;2023-05-21T06:52:08;15.30;99.90
15113;DHT22;7657;50.140;7.076;2023-05-21T06:54:35;15.30;99.90
15113;DHT22;7657;50.140;7.076;2023-05-21T06:57:02;15.30;99.90
15113;DHT22;7657;50.140;7.076;2023-05-21T06:59:29;15.40;99.90
15113;DHT22;7657;50.140;7.076;2023-05-21T07:01:56;15.40;99.90
15113;DHT22;7657;50.140;7.076;2023-05-21T07:04:23;15.50;99.90
15113;DHT22;7657;50.140;7.076;2023-05-21T07:06:51;15.60;99.90
15113;DHT22;7657;50.140;7.076;2023-05-21T07:09:18;15.60;99.90
15113;DHT22;7657;50.140;7.076;2023-05-21T07:11:45;15.60;99.90
15113;DHT22;7657;50.140;7.076;2023-05-21T07:14:12;15.50;99.90
15113;DHT22;7657;50.140;7.076;2023-05-21T07:16:39;15.50;99.90
15113;DHT22;7657;50.140;7.076;2023-05-21T07:19:06;15.50;99.90
15113;DHT22;7657;50.140;7.076;2023-05-21T07:21:33;15.60;99.90
15113;DHT22;7657;50.140;7.076;2023-05-21T07:24:01;15.70;99.90
15113;DHT22;7657;50.140;7.076;2023-05-21T07:26:28;15.70;99.90
15113;DHT22;7657;50.140;7.076;2023-05-21T07:28:55;15.60;99.90
15113;DHT22;7657;50.140;7.076;2023-05-21T07:31:27;15.70;99.90
15113;DHT22;7657;50.140;7.076;2023-05-21T07:33:54;15.70;99.90
15113;DHT22;7657;50.140;7.076;2023-05-21T07:36:20;15.70;99.90
15113;DHT22;7657;50.140;7.076;2023-05-21T07:38:47;15.70;99.90
15113;DHT22;7657;50.140;7.076;2023-05-21T07:41:16;15.70;99.90
15113;DHT22;7657;50.140;7.076;2023-05-21T07:43:42;15.70;99.90
15113;DHT22;7657;50.140;7.076;2023-05-21T07:46:09;15.90;99.90
15113;DHT22;7657;50.140;7.076;2023-05-21T07:48:36;15.90;99.90
15113;DHT22;7657;50.140;7.076;2023-05-21T07:51:03;16.00;99.90
15113;DHT22;7657;50.140;7.076;2023-05-21T07:53:30;16.10;99.90
15113;DHT22;7657;50.140;7.076;2023-05-21T07:55:58;16.10;99.90
15113;DHT22;7657;50.140;7.076;2023-05-21T07:58:26;16.10;99.90
15113;DHT22;7657;50.140;7.076;2023-05-21T08:00:53;16.10;99.90
15113;DHT22;7657;50.140;7.076;2023-05-21T08:03:20;16.10;99.90
15113;DHT22;7657;50.140;7.076;2023-05-21T08:05:47;16.20;99.90
15113;DHT22;7657;50.140;7.076;2023-05-21T08:08:15;16.20;99.90
15113;DHT22;7657;50.140;7.076;2023-05-21T08:10:43;16.20;99.90
15113;DHT22;7657;50.140;7.076;2023-05-21T08:13:11;16.20;99.90
15113;DHT22;7657;50.140;7.076;2023-05-21T08:15:39;16.30;99.90
15113;DHT22;7657;50.140;7.076;2023-05-21T08:18:06;16.30;99.90
15113;DHT22;7657;50.140;7.076;2023-05-21T08:20:33;16.30;99.90
15113;DHT22;7657;50.140;7.076;2023-05-21T08:23:00;16.40;99.90
15113;DHT22;7657;50.140;7.076;2023-05-21T08:25:27;16.30;99.90
15113;DHT22;7657;50.140;7.076;2023-05-21T08:27:54;16.40;99.90
15113;DHT22;7657;50.140;7.076;2023-05-21T08:30:21;16.40;99.90
15113;DHT22;7657;50.140;7.076;2023-05-21T08:32:49;16.40;99.90
15113;DHT22;7657;50.140;7.076;2023-05-21T08:35:16;16.40;99.90
15113;DHT22;7657;50.140;7.076;2023-05-21T08:37:43;16.40;99.90
15113;DHT22;7657;50.140;7.076;2023-05-21T08:40:10;16.50;99.90
15113;DHT22;7657;50.140;7.076;2023-05-21T08:42:42;16.50;99.90
15113;DHT22;7657;50.140;7.076;2023-05-21T08:45:11;16.60;99.90
15113;DHT22;7657;50.140;7.076;2023-05-21T08:47:41;16.70;99.90
15113;DHT22;7657;50.140;7.076;2023-05-21T08:50:12;16.80;99.90
15113;DHT22;7657;50.140;7.076;2023-05-21T08:52:40;16.80;99.90
15113;DHT22;7657;50.140;7.076;2023-05-21T08:55:07;16.90;99.90
15113;DHT22;7657;50.140;7.076;2023-05-21T08:57:35;16.90;99.90
15113;DHT22;7657;50.140;7.076;2023-05-21T09:00:03;17.00;99.90
15113;DHT22;7657;50.140;7.076;2023-05-21T09:02:33;17.00;99.90
15113;DHT22;7657;50.140;7.076;2023-05-21T09:05:01;17.00;99.90
15113;DHT22;7657;50.140;7.076;2023-05-21T09:07:30;17.10;99.90
15113;DHT22;7657;50.140;7.076;2023-05-21T09:10:03;17.10;99.90
15113;DHT22;7657;50.140;7.076;2023-05-21T09:12:33;17.20;99.90
15113;DHT22;7657;50.140;7.076;2023-05-21T09:15:00;17.20;99.90
15113;DHT22;7657;50.140;7.076;2023-05-21T09:17:27;17.30;99.90
15113;DHT22;7657;50.140;7.076;2023-05-21T09:20:09;17.30;99.90
15113;DHT22;7657;50.140;7.076;2023-05-21T09:22:39;17.40;99.90
15113;DHT22;7657;50.140;7.076;2023-05-21T09:25:07;17.40;99.90
15113;DHT22;7657;50.140;7.076;2023-05-21T09:27:35;17.50;99.90
15113;DHT22;7657;50.140;7.076;2023-05-21T09:30:03;17.50;99.90
15113;DHT22;7657;50.140;7.076;2023-05-21T09:32:31;17.60;99.90
15113;DHT22;7657;50.140;7.076;2023-05-21T09:35:06;17.60;99.90
15113;DHT22;7657;50.140;7.076;2023-05-21T09:37:38;17.70;99.90
15113;DHT22;7657;50.140;7.076;2023-05-21T09:40:10;17.70;99.90
15113;DHT22;7657;50.140;7.076;2023-05-21T09:42:38;17.70;99.90
15113;DHT22;7657;50.140;7.076;2023-05-21T09:45:08;17.80;99.90
15113;DHT22;7657;50.140;7.076;2023-05-21T09:47:40;17.90;99.90
15113;DHT22;7657;50.140;7.076;2023-05-21T09:50:09;17.90;99.90
15113;DHT22;7657;50.140;7.076;2023-05-21T09:52:36;17.90;99.90
15113;DHT22;7657;50.140;7.076;2023-05-21T09:55:05;18.00;99.90
15113;DHT22;7657;50.140;7.076;2023-05-21T09:57:32;18.10;99.90
15113;DHT22;7657;50.140;7.076;2023-05-21T09:59:58;18.10;99.90
15113;DHT22;7657;50.140;7.076;2023-05-21T10:02:26;18.20;99.90
15113;DHT22;7657;50.140;7.076;2023-05-21T10:04:54;18.20;99.90
15113;DHT22;7657;50.140;7.076;2023-05-21T10:07:22;18.30;99.90
15113;DHT22;7657;50.140;7.076;2023-05-21T10:09:53;18.30;99.90
15113;DHT22;7657;50.140;7.076;2023-05-21T10:12:23;18.30;99.90
15113;DHT22;7657;50.140;7.076;2023-05-21T10:14:55;18.40;99.90
15113;DHT22;7657;50.140;7.076;2023-05-21T10:17:26;18.40;99.90
15113;DHT22;7657;50.140;7.076;2023-05-21T10:19:54;18.50;99.90
15113;DHT22;7657;50.140;7.076;2023-05-21T10:22:22;18.50;99.90
15113;DHT22;7657;50.140;7.076;2023-05-21T10:24:51;18.60;99.90
15113;DHT22;7657;50.140;7.076;2023-05-21T10:27:19;18.60;99.90
15113;DHT22;7657;50.140;7.076;2023-05-21T10:29:49;18.70;99.90
15113;DHT22;7657;50.140;7.076;2023-05-21T10:32:16;18.70;99.90
15113;DHT22;7657;50.140;7.076;2023-05-21T10:34:45;18.80;99.90
15113;DHT22;7657;50.140;7.076;2023-05-21T10:37:12;18.80;99.90
15113;DHT22;7657;50.140;7.076;2023-05-21T10:39:39;18.80;99.90
15113;DHT22;7657;50.140;7.076;2023-05-21T10:42:17;18.90;99.90
15113;DHT22;7657;50.140;7.076;2023-05-21T10:44:59;18.90;99.90
15113;DHT22;7657;50.140;7.076;2023-05-21T10:48:04;19.00;99.90
15113;DHT22;7657;50.140;7.076;2023-05-21T10:50:47;19.00;99.90
15113;DHT22;7657;50.140;7.076;2023-05-21T10:53:21;19.00;99.90
15113;DHT22;7657;50.140;7.076;2023-05-21T10:55:58;19.10;99.90
15113;DHT22;7657;50.140;7.076;2023-05-21T10:58:52;19.10;99.90
15113;DHT22;7657;50.140;7.076;2023-05-21T11:01:25;19.10;99.90
15113;DHT22;7657;50.140;7.076;2023-05-21T11:03:54;19.20;99.90
15113;DHT22;7657;50.140;7.076;2023-05-21T11:06:22;19.20;99.90
15113;DHT22;7657;50.140;7.076;2023-05-21T11:08:50;19.20;99.90
15113;DHT22;7657;50.140;7.076;2023-05-21T11:11:38;19.20;99.90
15113;DHT22;7657;50.140;7.076;2023-05-21T11:14:26;19.20;99.90
15113;DHT22;7657;50.140;7.076;2023-05-21T11:16:54;19.30;99.90
15113;DHT22;7657;50.140;7.076;2023-05-21T11:19:21;19.30;99.90
15113;DHT22;7657;50.140;7.076;2023-05-21T11:21:57;19.40;99.90
15113;DHT22;7657;50.140;7.076;2023-05-21T11:24:24;19.40;99.90
15113;DHT22;7657;50.140;7.076;2023-05-21T11:27:00;19.40;99.90
15113;DHT22;7657;50.140;7.076;2023-05-21T11:29:46;19.50;99.90
15113;DHT22;7657;50.140;7.076;2023-05-21T11:32:15;19.50;99.90
15113;DHT22;7657;50.140;7.076;2023-05-21T11:34:47;19.50;99.90
15113;DHT22;7657;50.140;7.076;2023-05-21T11:37:30;19.50;99.90
15113;DHT22;7657;50.140;7.076;2023-05-21T11:40:17;19.60;99.90
15113;DHT22;7657;50.140;7.076;2023-05-21T11:42:49;19.60;99.90
15113;DHT22;7657;50.140;7.076;2023-05-21T11:45:17;19.60;99.90
15113;DHT22;7657;50.140;7.076;2023-05-21T11:47:46;19.70;99.90
15113;DHT22;7657;50.140;7.076;2023-05-21T11:50:14;19.80;99.90
15113;DHT22;7657;50.140;7.076;2023-05-21T11:52:42;19.80;99.90
15113;DHT22;7657;50.140;7.076;2023-05-21T11:55:10;19.90;99.90
15113;DHT22;7657;50.140;7.076;2023-05-21T11:57:40;19.90;99.90
15113;DHT22;7657;50.140;7.076;2023-05-21T12:00:12;20.00;99.90
15113;DHT22;7657;50.140;7.076;2023-05-21T12:02:44;20.00;99.90
15113;DHT22;7657;50.140;7.076;2023-05-21T12:05:13;20.00;99.90
15113;DHT22;7657;50.140;7.076;2023-05-21T12:07:40;20.10;99.90
15113;DHT22;7657;50.140;7.076;2023-05-21T12:10:08;20.10;99.90
15113;DHT22;7657;50.140;7.076;2023-05-21T12:12:35;20.20;99.90
15113;DHT22;7657;50.140;7.076;2023-05-21T12:15:02;20.20;99.90
15113;DHT22;7657;50.140;7.076;2023-05-21T12:17:30;20.20;99.90
15113;DHT22;7657;50.140;7.076;2023-05-21T12:19:57;20.30;99.90
15113;DHT22;7657;50.140;7.076;2023-05-21T12:22:27;20.30;99.90
15113;DHT22;7657;50.140;7.076;2023-05-21T12:24:54;20.40;99.90
15113;DHT22;7657;50.140;7.076;2023-05-21T12:27:22;20.40;99.90
15113;DHT22;7657;50.140;7.076;2023-05-21T12:29:50;20.50;99.90
15113;DHT22;7657;50.140;7.076;2023-05-21T12:32:19;20.60;99.90
15113;DHT22;7657;50.140;7.076;2023-05-21T12:34:48;20.60;99.90
15113;DHT22;7657;50.140;7.076;2023-05-21T12:37:18;20.70;99.90
15113;DHT22;7657;50.140;7.076;2023-05-21T12:39:49;20.70;99.90
15113;DHT22;7657;50.140;7.076;2023-05-21T12:42:22;20.80;99.90
15113;DHT22;7657;50.140;7.076;2023-05-21T12:44:51;20.90;99.90
15113;DHT22;7657;50.140;7.076;2023-05-21T12:47:22;21.10;99.90
15113;DHT22;7657;50.140;7.076;2023-05-21T12:49:50;21.20;99.90
15113;DHT22;7657;50.140;7.076;2023-05-21T12:52:20;21.40;99.90
15113;DHT22;7657;50.140;7.076;2023-05-21T12:54:51;21.40;99.90
15113;DHT22;7657;50.140;7.076;2023-05-21T12:57:19;21.40;99.90
15113;DHT22;7657;50.140;7.076;2023-05-21T12:59:49;21.50;99.90
15113;DHT22;7657;50.140;7.076;2023-05-21T13:02:18;21.50;99.90
15113;DHT22;7657;50.140;7.076;2023-05-21T13:04:46;21.60;99.90
15113;DHT22;7657;50.140;7.076;2023-05-21T13:07:13;21.60;99.90
15113;DHT22;7657;50.140;7.076;2023-05-21T13:09:41;21.70;99.90
15113;DHT22;7657;50.140;7.076;2023-05-21T13:12:10;21.60;99.90
15113;DHT22;7657;50.140;7.076;2023-05-21T13:14:37;21.60;99.90
15113;DHT22;7657;50.140;7.076;2023-05-21T13:17:04;21.60;99.90
15113;DHT22;7657;50.140;7.076;2023-05-21T13:19:31;21.70;99.90
15113;DHT22;7657;50.140;7.076;2023-05-21T13:21:58;21.80;99.90
15113;DHT22;7657;50.140;7.076;2023-05-21T13:24:25;21.80;99.90
15113;DHT22;7657;50.140;7.076;2023-05-21T13:26:52;21.70;99.90
15113;DHT22;7657;50.140;7.076;2023-05-21T13:29:20;21.80;99.90
15113;DHT22;7657;50.140;7.076;2023-05-21T13:31:47;21.80;99.90
15113;DHT22;7657;50.140;7.076;2023-05-21T13:34:14;21.70;99.90
15113;DHT22;7657;50.140;7.076;2023-05-21T13:36:41;21.70;99.90
15113;DHT22;7657;50.140;7.076;2023-05-21T13:39:07;21.80;99.90
15113;DHT22;7657;50.140;7.076;2023-05-21T13:41:34;21.90;99.90
15113;DHT22;7657;50.140;7.076;2023-05-21T13:44:01;21.90;99.90
15113;DHT22;7657;50.140;7.076;2023-05-21T13:46:29;22.00;99.90
15113;DHT22;7657;50.140;7.076;2023-05-21T13:48:56;22.10;99.90
15113;DHT22;7657;50.140;7.076;2023-05-21T13:51:23;22.20;99.90
15113;DHT22;7657;50.140;7.076;2023-05-21T13:53:50;22.10;99.90
15113;DHT22;7657;50.140;7.076;2023-05-21T13:56:17;22.10;99.90
15113;DHT22;7657;50.140;7.076;2023-05-21T13:58:45;22.20;99.90
15113;DHT22;7657;50.140;7.076;2023-05-21T14:01:12;22.30;99.90
15113;DHT22;7657;50.140;7.076;2023-05-21T14:03:40;22.30;99.90
15113;DHT22;7657;50.140;7.076;2023-05-21T14:06:07;22.40;99.90
15113;DHT22;7657;50.140;7.076;2023-05-21T14:08:34;22.40;99.90
15113;DHT22;7657;50.140;7.076;2023-05-21T14:11:02;22.30;99.90
15113;DHT22;7657;50.140;7.076;2023-05-21T14:13:29;22.30;99.90
15113;DHT22;7657;50.140;7.076;2023-05-21T14:15:57;22.40;99.90
15113;DHT22;7657;50.140;7.076;2023-05-21T14:18:23;22.40;99.90
15113;DHT22;7657;50.140;7.076;2023-05-21T14:20:52;22.50;99.90
15113;DHT22;7657;50.140;7.076;2023-05-21T14:23:19;22.70;99.90
15113;DHT22;7657;50.140;7.076;2023-05-21T14:25:46;23.10;99.90
15113;DHT22;7657;50.140;7.076;2023-05-21T14:28:12;23.40;99.90
15113;DHT22;7657;50.140;7.076;2023-05-21T14:30:39;23.80;99.90
15113;DHT22;7657;50.140;7.076;2023-05-21T14:33:06;24.10;99.90
15113;DHT22;7657;50.140;7.076;2023-05-21T14:35:33;24.30;99.90
15113;DHT22;7657;50.140;7.076;2023-05-21T14:38:01;24.60;99.90
15113;DHT22;7657;50.140;7.076;2023-05-21T14:40:28;24.80;99.90
15113;DHT22;7657;50.140;7.076;2023-05-21T14:42:55;25.10;99.90
15113;DHT22;7657;50.140;7.076;2023-05-21T14:45:22;25.20;99.90
15113;DHT22;7657;50.140;7.076;2023-05-21T14:47:49;25.40;99.90
15113;DHT22;7657;50.140;7.076;2023-05-21T14:50:16;25.70;99.90
15113;DHT22;7657;50.140;7.076;2023-05-21T14:52:43;26.10;99.90
15113;DHT22;7657;50.140;7.076;2023-05-21T14:55:11;26.40;99.90
15113;DHT22;7657;50.140;7.076;2023-05-21T14:57:40;26.50;99.90
15113;DHT22;7657;50.140;7.076;2023-05-21T15:00:08;26.40;99.90
15113;DHT22;7657;50.140;7.076;2023-05-21T15:02:37;26.30;99.90
15113;DHT22;7657;50.140;7.076;2023-05-21T15:05:05;26.60;99.90
15113;DHT22;7657;50.140;7.076;2023-05-21T15:07:32;27.10;99.90
15113;DHT22;7657;50.140;7.076;2023-05-21T15:09:59;27.30;99.90
15113;DHT22;7657;50.140;7.076;2023-05-21T15:12:27;27.40;99.90
15113;DHT22;7657;50.140;7.076;2023-05-21T15:14:54;27.80;99.90
15113;DHT22;7657;50.140;7.076;2023-05-21T15:17:21;27.80;99.90
15113;DHT22;7657;50.140;7.076;2023-05-21T15:19:48;28.00;99.90
15113;DHT22;7657;50.140;7.076;2023-05-21T15:22:15;27.80;99.90
15113;DHT22;7657;50.140;7.076;2023-05-21T15:24:41;28.00;99.90
15113;DHT22;7657;50.140;7.076;2023-05-21T15:27:09;28.30;99.90
15113;DHT22;7657;50.140;7.076;2023-05-21T15:29:37;28.50;99.90
15113;DHT22;7657;50.140;7.076;2023-05-21T15:32:05;28.60;99.90
15113;DHT22;7657;50.140;7.076;2023-05-21T15:34:32;28.40;99.90
15113;DHT22;7657;50.140;7.076;2023-05-21T15:36:59;28.40;99.90
15113;DHT22;7657;50.140;7.076;2023-05-21T15:39:26;28.20;99.90
15113;DHT22;7657;50.140;7.076;2023-05-21T15:41:53;28.20;99.90
15113;DHT22;7657;50.140;7.076;2023-05-21T15:44:20;28.20;99.90
15113;DHT22;7657;50.140;7.076;2023-05-21T15:46:49;28.10;99.90
15113;DHT22;7657;50.140;7.076;2023-05-21T15:49:16;28.10;99.90
15113;DHT22;7657;50.140;7.076;2023-05-21T15:51:43;27.80;99.90